Time;durP1;ratioP1;P1;durP2;ratioP2;P2;SDS_P1;SDS_P2;PMS_P1;PMS_P2;Temp;Humidity;BMP_temperature;BMP_pressure;BME280_temperature;BME280_humidity;BME280_pressure;Samples;Min_cycle;Max_cycle;Signal;HPM_P1;HPM_P2
2021/03/21 00:02:03;;;;;;;5.35;1.13;;;;;;;29.94;48.59;100883.97;5021654;28;69958;-27
2021/03/21 00:04:33;;;;;;;10.55;1.17;;;;;;;29.97;48.78;100887.09;5030345;28;67412;-28
2021/03/21 00:07:02;;;;;;;13.65;1.95;;;;;;;30.00;49.96;100889.34;5009991;28;70071;-25
2021/03/21 00:09:32;;;;;;;11.60;3.15;;;;;;;30.03;51.14;100893.50;5034405;28;65312;-26
2021/03/21 00:12:02;;;;;;;10.82;3.35;;;;;;;30.12;51.54;100889.53;5037917;28;71368;-25
2021/03/21 00:14:31;;;;;;;4.70;4.32;;;;;;;30.14;54.42;100892.84;5036794;28;67338;-27
2021/03/21 00:17:02;;;;;;;13.90;6.47;;;;;;;30.13;56.79;100904.72;5043676;28;70134;-27
2021/03/21 00:19:32;;;;;;;7.65;6.60;;;;;;;30.22;56.70;100910.72;5048163;28;65421;-26
2021/03/21 00:22:02;;;;;;;7.85;6.03;;;;;;;30.29;56.96;100908.84;5044157;27;69217;-26
2021/03/21 00:24:31;;;;;;;6.82;5.15;;;;;;;30.29;56.79;100916.97;5041201;28;66177;-26
2021/03/21 00:27:23;;;;;;;;;;;;;;;30.27;57.27;100910.94;5041868;28;69746;-25
2021/03/21 00:29:53;;;;;;;6.10;4.88;;;;;;;30.30;56.24;100906.97;5045692;28;66909;-25
2021/03/21 00:32:22;;;;;;;4.75;4.40;;;;;;;30.39;56.40;100916.47;5041628;28;70551;-26
2021/03/21 00:34:52;;;;;;;4.28;3.97;;;;;;;30.42;56.94;100924.16;5040132;28;66218;-25
2021/03/21 00:37:21;;;;;;;5.30;4.90;;;;;;;30.40;58.05;100929.00;5038236;28;70654;-28
2021/03/21 00:39:51;;;;;;;7.75;5.07;;;;;;;30.36;58.29;100923.16;5033343;28;65870;-27
2021/03/21 00:42:20;;;;;;;12.05;5.35;;;;;;;30.35;59.08;100923.38;5035522;27;70508;-28
2021/03/21 00:44:49;;;;;;;15.10;5.97;;;;;;;30.35;58.98;100917.97;5030947;28;64651;-29
2021/03/21 00:47:19;;;;;;;12.38;5.13;;;;;;;30.40;59.04;100926.28;5038165;28;68695;-29
2021/03/21 00:49:48;;;;;;;6.07;5.53;;;;;;;30.41;58.93;100925.22;5036792;28;65484;-26
2021/03/21 00:52:17;;;;;;;5.75;5.25;;;;;;;30.40;58.88;100926.28;5038328;28;69748;-27
2021/03/21 00:54:47;;;;;;;6.50;5.38;;;;;;;30.46;58.67;100923.53;5033149;28;65962;-29
2021/03/21 00:57:29;;;;;;;6.40;5.90;;;;;;;30.45;59.78;100926.44;5032589;28;70012;-28
2021/03/21 00:59:58;;;;;;;11.52;5.85;;;;;;;30.44;59.36;100927.50;5033342;28;65232;-28
2021/03/21 01:02:28;;;;;;;6.82;6.32;;;;;;;30.47;59.44;100932.47;5035599;28;70468;-28
2021/03/21 01:04:57;;;;;;;8.68;6.45;;;;;;;30.50;59.34;100932.03;5038114;28;65121;-29
2021/03/21 01:07:26;;;;;;;9.18;6.72;;;;;;;30.50;60.06;100934.75;5038769;28;69882;-28
2021/03/21 01:09:56;;;;;;;10.80;6.28;;;;;;;30.55;59.60;100932.22;5021964;28;65370;-28
2021/03/21 01:12:25;;;;;;;10.25;6.07;;;;;;;30.63;59.42;100934.69;5034405;28;69270;-30
2021/03/21 01:14:55;;;;;;;7.38;6.38;;;;;;;30.69;58.72;100943.81;5053710;28;66590;-36
2021/03/21 01:17:24;;;;;;;7.70;7.00;;;;;;;30.68;58.59;100937.56;5028998;28;69683;-29
2021/03/21 01:19:53;;;;;;;7.18;6.50;;;;;;;30.73;59.08;100943.16;5029512;28;66687;-31
2021/03/21 01:22:23;;;;;;;8.68;6.03;;;;;;;30.78;58.87;100947.91;5014092;28;68654;-30
2021/03/21 01:24:52;;;;;;;11.95;6.18;;;;;;;30.80;59.29;100945.03;5043128;28;65050;-28
2021/03/21 01:27:22;;;;;;;10.77;7.00;;;;;;;30.82;58.81;100942.94;5044304;28;69346;-28
2021/03/21 01:29:51;;;;;;;6.70;6.22;;;;;;;30.84;58.68;100946.22;5035001;28;67209;-28
2021/03/21 01:32:20;;;;;;;18.33;6.88;;;;;;;30.82;59.39;100942.94;5043798;28;69906;-29
2021/03/21 01:34:50;;;;;;;11.90;6.57;;;;;;;30.85;59.27;100953.31;5031340;28;65557;-30
2021/03/21 01:37:20;;;;;;;18.08;7.75;;;;;;;30.90;58.67;100948.91;5065681;27;69924;-28
2021/03/21 01:39:49;;;;;;;13.43;7.00;;;;;;;30.96;58.47;100955.34;5044402;28;66400;-28
2021/03/21 01:42:19;;;;;;;10.00;7.40;;;;;;;31.02;58.23;100948.22;5041238;28;69811;-28
2021/03/21 01:44:48;;;;;;;9.40;6.68;;;;;;;31.02;58.03;100942.78;5038151;28;65463;-28
2021/03/21 01:47:37;;;;;;;13.25;6.95;;;;;;;30.97;59.12;100927.19;5052120;28;69291;-27
2021/03/21 01:50:25;;;;;;;9.23;6.95;;;;;;;31.06;58.66;100938.56;5030204;28;65059;-29
2021/03/21 01:52:54;;;;;;;7.10;6.40;;;;;;;31.08;58.74;100940.03;5031568;28;69994;-30
2021/03/21 01:55:25;;;;;;;9.18;5.72;;;;;;;31.13;58.21;100940.19;5029446;28;65829;-29
2021/03/21 01:58:01;;;;;;;6.95;6.07;;;;;;;31.18;58.25;100936.84;5026334;28;70348;-28
2021/03/21 02:00:31;;;;;;;6.05;5.45;;;;;;;31.18;57.83;100947.66;5032826;28;66106;-27
2021/03/21 02:03:02;;;;;;;6.53;5.93;;;;;;;31.23;57.84;100953.25;5018358;28;69975;-28
2021/03/21 02:05:32;;;;;;;11.20;5.32;;;;;;;31.28;57.88;100949.88;5025257;28;66146;-29
2021/03/21 02:08:18;;;;;;;7.55;5.72;;;;;;;31.29;57.96;100955.09;5026035;28;69452;-29
2021/03/21 02:10:59;;;;;;;6.28;5.68;;;;;;;31.30;57.53;100945.88;5027239;27;67196;-29
2021/03/21 02:13:58;;;;;;;5.90;5.40;;;;;;;31.28;58.08;100947.97;5023604;28;69964;-29
2021/03/21 02:16:55;;;;;;;6.07;5.68;;;;;;;31.26;58.32;100946.53;5025501;28;65804;-29
2021/03/21 02:19:37;;;;;;;6.55;5.20;;;;;;;31.37;57.86;100953.97;5006309;28;70014;-30
2021/03/21 02:22:20;;;;;;;5.00;4.60;;;;;;;31.22;57.75;100920.94;5032429;28;66237;-29
2021/03/21 02:25:03;;;;;;;5.07;4.57;;;;;;;31.36;57.33;100949.63;5028299;28;69774;-31
2021/03/21 02:27:50;;;;;;;5.30;4.13;;;;;;;31.41;57.47;100952.50;5025844;28;67209;-33
2021/03/21 02:30:26;;;;;;;4.20;3.90;;;;;;;31.43;57.64;100949.59;5027060;28;71484;-30
2021/03/21 02:33:18;;;;;;;4.70;4.30;;;;;;;31.35;57.54;100945.22;5024008;28;66504;-29
2021/03/21 02:36:03;;;;;;;4.20;3.90;;;;;;;31.44;56.88;100946.63;5025795;28;70358;-32
2021/03/21 02:38:42;;;;;;;6.80;3.97;;;;;;;31.58;56.82;100948.16;5025913;28;65908;-29
2021/03/21 02:41:30;;;;;;;3.80;3.60;;;;;;;31.52;56.90;100937.38;5026184;28;70567;-30
2021/03/21 02:44:06;;;;;;;4.00;3.70;;;;;;;31.64;56.61;100953.75;5025570;28;67919;-35
2021/03/21 02:46:42;;;;;;;4.05;3.72;;;;;;;31.58;56.74;100937.31;5023529;28;70666;-29
2021/03/21 02:49:24;;;;;;;3.78;3.47;;;;;;;31.68;56.77;100949.53;5023957;28;67124;-30
2021/03/21 02:52:03;;;;;;;3.72;3.20;;;;;;;31.69;56.57;100943.88;5034994;28;69831;-30
2021/03/21 02:55:02;;;;;;;4.57;3.28;;;;;;;31.72;55.93;100942.59;5028651;28;65677;-30
2021/03/21 02:57:40;;;;;;;3.65;3.35;;;;;;;31.71;56.42;100938.25;5016850;28;70100;-30
2021/03/21 03:00:12;;;;;;;5.72;3.05;;;;;;;31.74;55.85;100932.38;5031309;28;65559;-29
2021/03/21 03:02:51;;;;;;;3.22;3.03;;;;;;;31.75;56.27;100931.31;5023941;28;69952;-29
2021/03/21 03:05:37;;;;;;;3.47;3.17;;;;;;;31.78;55.96;100920.00;5024958;28;66664;-32
2021/03/21 03:08:09;;;;;;;3.42;3.22;;;;;;;31.85;55.83;100919.94;5019388;28;70037;-29
2021/03/21 03:10:45;;;;;;;;;;;;;;;31.76;56.20;100916.69;5037178;28;66657;-30
2021/03/21 03:13:24;;;;;;;3.85;3.25;;;;;;;31.88;55.35;100906.75;5037325;28;69870;-29
2021/03/21 03:16:00;;;;;;;3.00;2.80;;;;;;;31.87;55.79;100910.50;5024378;28;66036;-35
2021/03/21 03:18:37;;;;;;;2.70;2.50;;;;;;;31.88;55.60;100920.31;5013821;28;70312;-29
2021/03/21 03:21:31;;;;;;;3.25;2.80;;;;;;;31.97;55.32;100923.59;5025598;28;64943;-29
2021/03/21 03:24:08;;;;;;;3.70;2.83;;;;;;;32.00;55.47;100918.53;5030341;28;70448;-31
2021/03/21 03:26:53;;;;;;;3.33;3.13;;;;;;;31.92;55.18;100899.84;5026814;28;65158;-31
2021/03/21 03:29:34;;;;;;;3.67;2.60;;;;;;;32.03;55.08;100909.94;5027399;28;69762;-32
2021/03/21 03:32:10;;;;;;;2.70;2.50;;;;;;;32.09;55.23;100915.50;5028277;28;65221;-31
2021/03/21 03:34:52;;;;;;;2.80;2.55;;;;;;;32.12;54.90;100910.44;5033258;28;70001;-30
2021/03/21 03:37:22;;;;;;;;;;;;;;;32.08;55.02;100903.81;5028415;28;65972;-30
2021/03/21 03:39:51;;;;;;;5.82;2.60;;;;;;;32.23;54.33;100903.41;5034203;28;70042;-31
2021/03/21 03:42:38;;;;;;;2.80;2.63;;;;;;;32.22;54.14;100899.06;5027416;28;65269;-29
2021/03/21 03:45:09;;;;;;;2.50;2.30;;;;;;;32.26;54.58;100889.38;5034032;28;70005;-30
2021/03/21 03:48:17;;;;;;;2.78;2.67;;;;;;;32.24;54.07;100886.91;5031117;27;65306;-36
2021/03/21 03:51:21;;;;;;;2.83;2.63;;;;;;;32.29;54.25;100878.09;5030634;28;68935;-31
2021/03/21 03:54:09;;;;;;;2.88;2.67;;;;;;;32.30;54.03;100879.75;5027297;28;65423;-33
2021/03/21 03:57:07;;;;;;;3.88;3.00;;;;;;;32.28;54.06;100871.00;5033715;28;69974;-30
2021/03/21 04:00:07;;;;;;;3.50;3.20;;;;;;;32.40;54.13;100873.75;5034142;28;65131;-30
2021/03/21 04:02:52;;;;;;;2.90;2.75;;;;;;;32.37;53.79;100868.78;5033771;28;69662;-30
2021/03/21 04:05:26;;;;;;;3.03;2.83;;;;;;;32.39;53.77;100856.63;5028400;28;66011;-34
2021/03/21 04:08:01;;;;;;;4.43;2.85;;;;;;;32.42;53.66;100861.59;5030806;28;69240;-31
2021/03/21 04:10:39;;;;;;;2.92;2.72;;;;;;;32.43;53.56;100857.84;5034603;28;66156;-31
2021/03/21 04:13:16;;;;;;;3.72;2.83;;;;;;;32.44;53.71;100851.34;5034150;28;70379;-29
2021/03/21 04:15:53;;;;;;;4.85;2.97;;;;;;;32.52;53.66;100843.97;5033706;28;65366;-32
2021/03/21 04:18:27;;;;;;;6.93;3.47;;;;;;;32.55;53.55;100848.94;5031768;28;69084;-31
2021/03/21 04:21:28;;;;;;;3.25;2.95;;;;;;;32.56;53.58;100845.13;5025221;27;66402;-31
2021/03/21 04:24:18;;;;;;;3.33;3.13;;;;;;;32.58;53.59;100837.59;5029702;28;69680;-29
2021/03/21 04:27:03;;;;;;;4.25;3.63;;;;;;;32.49;53.14;100813.50;5030093;28;65567;-30
2021/03/21 04:29:40;;;;;;;3.63;3.42;;;;;;;32.63;53.27;100835.00;5032056;28;69677;-31
2021/03/21 04:32:26;;;;;;;4.00;3.63;;;;;;;32.65;53.04;100832.88;5034909;28;64976;-34
2021/03/21 04:35:01;;;;;;;3.90;3.60;;;;;;;32.65;53.04;100816.56;5034168;28;70509;-32
2021/03/21 04:37:31;;;;;;;3.88;3.67;;;;;;;32.72;53.15;100822.75;5032920;28;66056;-30
2021/03/21 04:40:02;;;;;;;3.53;3.33;;;;;;;32.73;53.02;100824.38;5033598;28;69238;-31
2021/03/21 04:42:47;;;;;;;3.63;3.42;;;;;;;32.70;52.93;100811.28;5032520;28;66139;-30
2021/03/21 04:45:22;;;;;;;3.67;3.47;;;;;;;32.82;53.22;100817.56;5039662;28;69135;-31
2021/03/21 04:48:01;;;;;;;3.88;3.58;;;;;;;32.80;53.10;100803.38;5034916;28;65664;-34
2021/03/21 04:50:33;;;;;;;7.28;3.92;;;;;;;32.87;53.17;100793.19;5033197;28;70049;-31
2021/03/21 04:53:17;;;;;;;3.78;3.10;;;;;;;32.85;53.01;100789.91;5032769;28;66016;-31
2021/03/21 04:55:56;;;;;;;3.50;3.30;;;;;;;32.82;52.70;100763.22;5025368;28;70028;-31
2021/03/21 04:58:40;;;;;;;3.65;3.35;;;;;;;32.86;52.79;100769.84;5034644;28;65374;-30
2021/03/21 05:01:16;;;;;;;3.38;3.17;;;;;;;32.93;52.97;100765.13;5036953;28;69472;-31
2021/03/21 05:03:54;;;;;;;2.90;2.70;;;;;;;32.97;52.83;100764.63;5030281;28;66853;-30
2021/03/21 05:06:40;;;;;;;3.40;3.20;;;;;;;32.81;52.76;100728.97;5032282;28;69326;-29
2021/03/21 05:09:47;;;;;;;3.78;3.47;;;;;;;33.02;52.76;100756.63;5035588;28;65887;-30
2021/03/21 05:12:24;;;;;;;3.90;3.60;;;;;;;33.08;52.49;100750.25;5030275;28;70448;-32
2021/03/21 05:15:25;;;;;;;3.28;3.03;;;;;;;33.03;52.62;100741.97;5029889;27;65777;-32
2021/03/21 05:18:13;;;;;;;3.22;3.03;;;;;;;33.09;52.82;100730.13;5037362;28;69872;-31
2021/03/21 05:21:08;;;;;;;4.28;2.95;;;;;;;33.10;52.53;100731.81;5035417;28;65390;-32
2021/03/21 05:23:43;;;;;;;4.35;3.03;;;;;;;33.12;52.90;100725.03;5024658;28;70073;-32
2021/03/21 05:26:43;;;;;;;3.33;3.13;;;;;;;33.10;52.77;100715.50;5025200;28;66505;-37
2021/03/21 05:29:35;;;;;;;3.47;3.28;;;;;;;33.15;52.84;100707.44;5023426;28;70254;-33
2021/03/21 05:32:09;;;;;;;;;;;;;;;33.19;52.88;100708.63;5025687;28;66609;-34
2021/03/21 05:34:39;;;;;;;3.60;3.40;;;;;;;33.27;52.51;100689.22;5027474;28;69925;-34
2021/03/21 05:37:20;;;;;;;4.07;3.70;;;;;;;33.31;52.63;100684.94;5028504;28;66009;-35
2021/03/21 05:40:02;;;;;;;4.03;3.80;;;;;;;33.31;52.65;100679.50;5027833;28;69502;-34
2021/03/21 05:42:52;;;;;;;3.58;3.28;;;;;;;33.28;51.87;100674.56;5020510;28;65940;-32
2021/03/21 05:46:03;;;;;;;24.45;3.47;;;;;;;33.05;50.10;100672.72;5027256;28;70854;-31
2021/03/21 05:49:14;;;;;;;4.65;3.15;;;;;;;32.92;49.27;100649.31;5024018;27;66701;-32
2021/03/21 05:52:12;;;;;;;3.22;3.03;;;;;;;32.71;47.63;100655.41;5013626;28;70307;-31
2021/03/21 05:54:46;;;;;;;3.33;2.97;;;;;;;32.67;47.75;100648.78;5033175;28;65534;-34
2021/03/21 05:57:37;;;;;;;3.10;2.80;;;;;;;32.53;46.41;100639.25;5032844;27;70331;-32
2021/03/21 06:00:17;;;;;;;3.15;3.00;;;;;;;32.49;45.44;100638.91;5033859;28;65534;-34
2021/03/21 06:03:11;;;;;;;4.80;2.90;;;;;;;32.40;44.75;100629.41;5035246;28;69954;-30
2021/03/21 06:05:59;;;;;;;2.70;2.58;;;;;;;32.36;44.88;100623.63;5059224;27;67297;-31
2021/03/21 06:08:31;;;;;;;3.08;2.88;;;;;;;32.30;44.10;100618.34;5037289;28;70106;-30
2021/03/21 06:11:18;;;;;;;2.90;2.80;;;;;;;32.16;43.19;100605.00;5036637;28;66133;-31
2021/03/21 06:14:06;;;;;;;3.08;2.88;;;;;;;32.13;42.73;100607.38;5029859;28;69201;-33
2021/03/21 06:16:53;;;;;;;3.00;2.83;;;;;;;32.09;42.07;100592.59;5019821;28;65655;-31
2021/03/21 06:19:45;;;;;;;2.70;2.60;;;;;;;32.02;41.02;100585.41;5029856;28;70012;-32
2021/03/21 06:22:47;;;;;;;4.25;2.80;;;;;;;32.07;42.23;100589.28;5065624;27;65183;-40
2021/03/21 06:25:47;;;;;;;3.00;2.80;;;;;;;32.01;41.09;100583.78;5032731;28;69871;-31
2021/03/21 06:28:24;;;;;;;2.90;2.80;;;;;;;32.02;41.50;100577.28;5043507;28;65259;-31
2021/03/21 06:31:09;;;;;;;2.72;2.63;;;;;;;31.96;39.71;100580.09;5047383;28;68749;-32
2021/03/21 06:34:00;;;;;;;2.92;2.72;;;;;;;31.95;40.36;100571.13;5028587;28;65976;-32
2021/03/21 06:37:04;;;;;;;2.58;2.38;;;;;;;31.98;39.99;100562.53;5013074;28;69309;-31
2021/03/21 06:39:54;;;;;;;2.53;2.42;;;;;;;31.99;40.01;100555.22;5008737;28;66158;-31
2021/03/21 06:42:58;;;;;;;2.37;2.27;;;;;;;31.94;38.14;100550.50;5027280;28;69435;-31
2021/03/21 06:45:42;;;;;;;2.30;2.20;;;;;;;31.97;39.41;100539.16;5018158;28;66190;-32
2021/03/21 06:48:26;;;;;;;2.60;2.50;;;;;;;31.95;39.04;100535.03;5040017;28;70253;-31
2021/03/21 06:51:14;;;;;;;2.42;2.33;;;;;;;31.93;38.91;100543.44;5045250;28;65537;-32
2021/03/21 06:54:06;;;;;;;2.30;2.20;;;;;;;31.93;39.20;100531.72;5031956;28;69417;-30
2021/03/21 06:56:52;;;;;;;2.20;2.10;;;;;;;31.96;38.61;100526.66;5011427;28;65914;-32
2021/03/21 06:59:53;;;;;;;2.42;2.33;;;;;;;31.99;38.32;100515.34;5028455;28;69224;-34
2021/03/21 07:03:07;;;;;;;2.63;2.53;;;;;;;31.99;37.88;100514.53;5025242;28;66867;-32
2021/03/21 07:05:45;;;;;;;2.42;2.33;;;;;;;32.04;38.11;100507.31;5024101;28;69972;-32
2021/03/21 07:08:52;;;;;;;2.40;2.30;;;;;;;31.98;38.19;100500.16;5037357;28;66550;-32
2021/03/21 07:11:33;;;;;;;2.40;2.30;;;;;;;32.02;37.71;100498.59;5036022;28;70604;-32
2021/03/21 07:14:23;;;;;;;2.22;2.13;;;;;;;31.97;37.44;100494.94;5025037;28;65659;-30
2021/03/21 07:17:27;;;;;;;3.00;2.80;;;;;;;31.89;37.09;100477.09;5023509;28;69503;-33
2021/03/21 07:20:07;;;;;;;2.90;2.80;;;;;;;32.01;37.31;100496.94;5033258;28;66020;-32
2021/03/21 07:23:20;;;;;;;2.80;2.70;;;;;;;31.99;37.36;100488.22;5027258;28;69875;-36
2021/03/21 07:26:14;;;;;;;2.70;2.60;;;;;;;31.99;37.02;100487.41;5031884;28;65433;-31
2021/03/21 07:28:45;;;;;;;4.30;4.10;;;;;;;32.11;39.56;100479.25;5032873;28;70194;-34
2021/03/21 07:31:37;;;;;;;5.40;5.20;;;;;;;32.28;40.71;100472.00;5025218;28;66086;-32
2021/03/21 07:34:40;;;;;;;6.47;6.18;;;;;;;32.46;41.07;100477.31;5025949;28;69898;-33
2021/03/21 07:37:17;;;;;;;;;;;;;;;32.62;43.16;100480.31;5035171;28;65442;-34
2021/03/21 07:40:07;;;;;;;15.50;8.45;;;;;;;32.79;44.56;100467.63;5035167;27;69187;-34
2021/03/21 07:42:58;;;;;;;9.98;9.00;;;;;;;32.96;44.57;100464.09;5040180;27;66017;-35
2021/03/21 07:45:38;;;;;;;10.95;10.13;;;;;;;33.10;45.34;100454.63;5038832;28;69118;-39
2021/03/21 07:48:19;;;;;;;22.52;13.88;;;;;;;33.25;45.94;100452.13;5040978;27;65966;-34
2021/03/21 07:51:05;;;;;;;13.60;12.68;;;;;;;33.36;46.53;100437.63;5038062;28;68834;-33
2021/03/21 07:53:57;;;;;;;13.70;12.70;;;;;;;33.48;46.90;100444.88;5037867;28;66124;-33
2021/03/21 07:56:33;;;;;;;14.30;13.07;;;;;;;33.55;46.29;100432.78;5033443;28;69742;-32
2021/03/21 07:59:09;;;;;;;13.45;12.18;;;;;;;33.62;46.29;100429.88;5023430;28;65543;-33
2021/03/21 08:01:38;;;;;;;13.75;11.65;;;;;;;33.66;46.24;100422.91;5054300;28;68151;-34
2021/03/21 08:04:18;;;;;;;12.35;11.38;;;;;;;33.74;46.77;100419.75;5039932;28;66037;-33
2021/03/21 08:07:02;;;;;;;11.85;10.77;;;;;;;33.69;46.61;100400.63;5038254;28;69729;-33
2021/03/21 08:09:37;;;;;;;10.98;10.27;;;;;;;33.85;46.65;100406.25;5032251;28;64550;-34
2021/03/21 08:12:23;;;;;;;10.82;9.65;;;;;;;33.87;46.57;100404.13;5037127;28;70917;-33
2021/03/21 08:15:02;;;;;;;10.45;9.63;;;;;;;33.92;46.68;100396.03;5031532;27;65448;-33
2021/03/21 08:17:49;;;;;;;9.88;9.25;;;;;;;33.97;46.69;100390.66;5047530;28;69827;-34
2021/03/21 08:20:40;;;;;;;10.18;9.23;;;;;;;34.03;46.58;100395.91;5034949;28;65529;-32
2021/03/21 08:23:21;;;;;;;10.00;9.35;;;;;;;34.08;46.67;100387.00;5019215;28;70985;-34
2021/03/21 08:25:52;;;;;;;9.88;9.07;;;;;;;34.10;46.49;100390.31;5034957;28;65473;-36
2021/03/21 08:28:24;;;;;;;9.85;9.18;;;;;;;34.03;46.26;100373.31;5039622;28;69446;-32
2021/03/21 08:30:56;;;;;;;8.77;8.18;;;;;;;34.17;46.66;100377.31;5045745;28;65318;-33
2021/03/21 08:33:34;;;;;;;7.88;7.38;;;;;;;34.18;46.78;100389.81;5039444;28;69901;-32
2021/03/21 08:36:15;;;;;;;8.93;8.15;;;;;;;34.22;46.65;100396.44;5044456;28;64741;-34
2021/03/21 08:39:22;;;;;;;8.25;7.57;;;;;;;34.23;46.99;100394.53;5026798;28;70587;-34
2021/03/21 08:41:58;;;;;;;7.78;7.20;;;;;;;34.25;46.99;100395.91;5047692;28;66573;-36
2021/03/21 08:44:48;;;;;;;7.18;6.78;;;;;;;34.28;47.04;100399.22;5046199;28;70188;-34
2021/03/21 08:47:21;;;;;;;7.30;6.90;;;;;;;34.36;47.00;100401.47;5044931;27;65198;-32
2021/03/21 08:49:54;;;;;;;6.93;6.38;;;;;;;34.37;47.02;100397.66;5039150;28;70608;-35
2021/03/21 08:52:45;;;;;;;6.97;6.57;;;;;;;34.36;47.27;100398.75;5039547;28;66129;-33
2021/03/21 08:55:32;;;;;;;6.78;6.20;;;;;;;34.41;47.44;100405.09;5044633;27;69186;-32
2021/03/21 08:58:25;;;;;;;5.85;5.45;;;;;;;34.40;47.31;100399.88;5027056;28;64495;-34
2021/03/21 09:00:54;;;;;;;;;;;;;;;34.44;47.18;100420.09;5039509;28;68910;-33
2021/03/21 09:03:43;;;;;;;5.60;5.20;;;;;;;34.50;47.19;100408.16;5044403;28;67092;-34
2021/03/21 09:06:35;;;;;;;5.47;5.07;;;;;;;34.48;47.43;100418.47;5056751;28;69958;-35
2021/03/21 09:09:28;;;;;;;5.45;5.15;;;;;;;34.49;47.33;100425.56;5040519;28;65467;-33
2021/03/21 09:12:18;;;;;;;5.40;4.85;;;;;;;34.50;47.45;100424.50;5045583;28;69392;-33
2021/03/21 09:14:47;;;;;;;4.43;4.13;;;;;;;34.52;47.61;100427.81;5039717;28;66178;-36
2021/03/21 09:17:24;;;;;;;5.30;4.90;;;;;;;34.44;47.96;100420.09;5038277;28;70097;-35
2021/03/21 09:19:58;;;;;;;4.53;4.22;;;;;;;34.41;47.96;100424.16;5043469;28;66356;-34
2021/03/21 09:22:36;;;;;;;5.45;4.13;;;;;;;34.51;48.24;100444.38;5029241;28;69634;-33
2021/03/21 09:25:33;;;;;;;5.45;4.15;;;;;;;34.50;47.83;100440.84;5049487;28;65948;-34
2021/03/21 09:28:02;;;;;;;4.10;3.90;;;;;;;34.56;47.98;100445.28;5054221;28;68833;-33
2021/03/21 09:30:47;;;;;;;4.10;3.90;;;;;;;34.52;48.07;100449.59;5048321;27;65796;-34
2021/03/21 09:33:37;;;;;;;4.00;3.80;;;;;;;34.53;48.21;100448.50;5038691;28;69655;-34
2021/03/21 09:36:15;;;;;;;3.70;3.40;;;;;;;34.52;48.32;100446.88;5038850;28;65209;-34
2021/03/21 09:38:56;;;;;;;3.75;3.50;;;;;;;34.48;48.24;100437.56;5017987;28;70650;-34
2021/03/21 09:41:26;;;;;;;3.78;3.58;;;;;;;34.53;48.35;100456.69;5023082;28;65681;-34
2021/03/21 09:44:04;;;;;;;3.95;3.67;;;;;;;34.42;48.80;100441.31;5046997;27;69252;-35
2021/03/21 09:47:01;;;;;;;3.55;3.35;;;;;;;34.48;48.54;100462.06;5040063;28;65314;-37
2021/03/21 09:50:16;;;;;;;3.75;3.53;;;;;;;34.55;48.88;100470.03;5037306;28;70218;-34
2021/03/21 09:52:53;;;;;;;3.70;3.40;;;;;;;34.42;48.74;100463.09;5040117;28;66216;-33
2021/03/21 09:55:44;;;;;;;4.50;2.83;;;;;;;34.47;48.98;100484.94;5048494;27;70387;-33
2021/03/21 09:58:38;;;;;;;4.07;3.30;;;;;;;34.49;48.94;100493.66;5030278;28;65145;-35
2021/03/21 10:01:43;;;;;;;3.50;3.13;;;;;;;34.51;48.88;100491.50;5044464;28;69401;-36
2021/03/21 10:04:31;;;;;;;5.70;2.58;;;;;;;34.50;49.00;100489.06;5039888;28;65900;-33
2021/03/21 10:07:23;;;;;;;5.07;2.70;;;;;;;34.50;48.91;100505.41;5046944;28;69872;-35
2021/03/21 10:09:54;;;;;;;2.85;2.60;;;;;;;34.54;48.85;100501.88;5041867;28;66453;-34
2021/03/21 10:12:24;;;;;;;2.83;2.63;;;;;;;34.52;48.79;100531.31;5040058;28;69363;-34
2021/03/21 10:15:06;;;;;;;7.00;3.17;;;;;;;34.47;48.65;100539.41;5036523;28;65135;-33
2021/03/21 10:17:36;;;;;;;3.10;2.90;;;;;;;34.50;48.96;100544.34;5045688;28;69753;-34
2021/03/21 10:20:06;;;;;;;3.08;2.80;;;;;;;34.45;49.07;100536.09;5046537;28;65466;-33
2021/03/21 10:22:35;;;;;;;2.78;2.58;;;;;;;34.47;48.90;100544.84;5042046;27;70587;-33
2021/03/21 10:25:12;;;;;;;7.28;2.53;;;;;;;34.46;49.05;100554.94;5034743;28;65207;-35
2021/03/21 10:27:47;;;;;;;2.95;2.67;;;;;;;34.43;48.92;100549.13;5037591;27;70247;-32
2021/03/21 10:30:24;;;;;;;2.85;2.55;;;;;;;34.43;49.08;100557.31;5031359;28;66402;-34
2021/03/21 10:33:00;;;;;;;3.08;2.40;;;;;;;34.41;49.39;100562.22;5039796;28;70400;-32
2021/03/21 10:35:30;;;;;;;4.03;2.20;;;;;;;34.38;49.37;100555.34;5033288;28;67067;-33
2021/03/21 10:38:09;;;;;;;2.45;2.20;;;;;;;34.38;49.33;100557.22;5033831;28;69052;-34
2021/03/21 10:40:44;;;;;;;2.38;2.28;;;;;;;34.36;49.46;100570.31;5031524;28;66273;-33
2021/03/21 10:43:16;;;;;;;11.30;3.50;;;;;;;34.33;49.93;100577.06;5032362;28;69976;-34
2021/03/21 10:45:49;;;;;;;8.05;3.90;;;;;;;34.23;50.27;100574.19;5031523;28;66017;-35
2021/03/21 10:48:18;;;;;;;15.98;4.40;;;;;;;34.12;51.03;100586.00;5029757;28;70597;-35
2021/03/21 10:51:00;;;;;;;12.68;4.72;;;;;;;33.99;51.20;100595.31;5033113;28;66890;-33
2021/03/21 10:54:27;;;;;;;19.20;5.85;;;;;;;33.85;51.71;100597.56;5072331;27;68263;-31
2021/03/21 10:57:44;;;;;;;14.30;5.18;;;;;;;33.74;52.34;100591.13;5024560;28;65380;-33
2021/03/21 11:00:32;;;;;;;11.27;5.43;;;;;;;33.74;52.16;100585.69;5022904;28;69745;-34
2021/03/21 11:03:01;;;;;;;5.32;4.82;;;;;;;33.71;51.79;100591.63;5019826;28;66071;-32
2021/03/21 11:05:32;;;;;;;5.47;4.97;;;;;;;33.65;52.09;100592.56;5031724;28;69548;-32
2021/03/21 11:08:27;;;;;;;11.10;4.97;;;;;;;33.63;52.35;100597.47;5030424;28;65240;-32
2021/03/21 11:11:12;;;;;;;5.75;5.28;;;;;;;33.54;52.21;100585.31;5064375;27;69491;-34
2021/03/21 11:13:45;;;;;;;11.25;5.15;;;;;;;33.62;52.29;100612.13;5035287;28;43603;-31
2021/03/21 11:16:19;;;;;;;6.53;5.93;;;;;;;33.60;52.12;100614.28;5033482;28;69891;-34
2021/03/21 11:19:03;;;;;;;5.82;5.32;;;;;;;33.57;52.56;100612.03;5033627;28;65839;-33
2021/03/21 11:21:48;;;;;;;7.18;5.25;;;;;;;33.63;52.15;100616.50;5030104;28;69674;-31
2021/03/21 11:24:33;;;;;;;8.68;4.88;;;;;;;33.70;51.60;100628.03;5037885;28;65426;-31
2021/03/21 11:27:10;;;;;;;5.35;4.90;;;;;;;33.70;51.73;100628.03;5041346;28;69840;-33
2021/03/21 11:29:42;;;;;;;6.32;5.50;;;;;;;33.65;51.74;100625.22;5039768;28;66020;-32
2021/03/21 11:32:26;;;;;;;8.13;5.85;;;;;;;33.66;52.25;100629.59;5038043;28;69331;-31
2021/03/21 11:35:00;;;;;;;6.07;5.60;;;;;;;33.79;51.85;100669.25;5035821;28;66865;-32
2021/03/21 11:37:33;;;;;;;6.43;5.90;;;;;;;33.81;51.61;100684.28;5033545;28;69653;-31
2021/03/21 11:40:23;;;;;;;6.18;5.78;;;;;;;33.81;51.56;100703.31;5033204;28;65911;-31
2021/03/21 11:43:19;;;;;;;6.57;6.10;;;;;;;33.83;51.63;100702.25;5033280;28;70474;-32
2021/03/21 11:45:50;;;;;;;6.47;5.88;;;;;;;33.85;51.41;100683.78;5031424;28;67079;-33
2021/03/21 11:48:27;;;;;;;6.65;6.03;;;;;;;33.85;51.30;100634.81;5037095;28;70181;-31
2021/03/21 11:50:58;;;;;;;7.43;6.93;;;;;;;33.84;51.29;100652.22;5041346;28;65911;-31
2021/03/21 11:53:32;;;;;;;8.57;7.97;;;;;;;33.81;51.44;100665.22;5041003;28;70365;-31
2021/03/21 11:56:10;;;;;;;10.30;9.25;;;;;;;33.76;51.47;100681.44;5034691;28;66021;-31
2021/03/21 11:58:50;;;;;;;12.87;11.70;;;;;;;33.73;51.32;100681.13;5030389;27;69915;-32
2021/03/21 12:01:40;;;;;;;12.20;11.20;;;;;;;33.75;51.47;100679.81;5035509;28;65822;-32
2021/03/21 12:04:19;;;;;;;11.40;10.55;;;;;;;33.77;51.26;100677.69;5034794;28;69027;-33
2021/03/21 12:06:55;;;;;;;15.10;10.63;;;;;;;33.76;51.23;100670.56;5034740;28;65198;-31
2021/03/21 12:09:32;;;;;;;14.55;10.93;;;;;;;33.76;51.28;100678.72;5030431;28;69503;-31
2021/03/21 12:12:24;;;;;;;14.80;10.75;;;;;;;33.69;51.25;100653.59;5027668;28;65029;-31
2021/03/21 12:14:53;;;;;;;15.52;11.73;;;;;;;33.77;51.68;100677.69;5026307;28;72480;-35
2021/03/21 12:17:22;;;;;;;14.63;12.05;;;;;;;33.76;51.44;100670.56;5034673;28;66203;-33
2021/03/21 12:19:55;;;;;;;12.95;11.82;;;;;;;33.68;51.25;100651.94;5026521;28;69832;-32
2021/03/21 12:22:39;;;;;;;13.13;11.75;;;;;;;33.69;51.27;100658.22;5026861;28;67140;-33
2021/03/21 12:25:32;;;;;;;15.10;12.40;;;;;;;33.67;51.67;100669.31;5029382;28;69802;-34
2021/03/21 12:28:16;;;;;;;;;;;;;;;33.67;51.58;100682.94;5025559;28;66213;-32
2021/03/21 12:30:53;;;;;;;13.85;12.65;;;;;;;33.73;51.11;100678.41;5020833;28;69886;-33